Time;durP1;ratioP1;P1;durP2;ratioP2;P2;SDS_P1;SDS_P2;PMS_P1;PMS_P2;Temp;Humidity;BMP_temperature;BMP_pressure;BME280_temperature;BME280_humidity;BME280_pressure;Samples;Min_cycle;Max_cycle;Signal;HPM_P1;HPM_P2
2021/07/30 00:01:18;;;;;;;11.50;3.83;;;13.70;99.90;;;;;;5116778;28;20063;-81
2021/07/30 00:03:45;;;;;;;9.65;4.03;;;13.70;99.90;;;;;;5116636;28;20369;-81
2021/07/30 00:06:12;;;;;;;9.23;3.85;;;13.70;99.90;;;;;;5116717;28;20044;-82
2021/07/30 00:08:39;;;;;;;12.70;3.90;;;13.60;99.90;;;;;;5116481;28;20051;-82
2021/07/30 00:11:07;;;;;;;10.02;3.88;;;13.60;99.90;;;;;;5116577;28;20040;-81
2021/07/30 00:13:33;;;;;;;10.90;4.00;;;13.60;99.90;;;;;;5132986;28;20032;-81
2021/07/30 00:16:00;;;;;;;13.93;4.35;;;13.60;99.90;;;;;;5116688;28;20043;-81
2021/07/30 00:18:27;;;;;;;11.45;3.97;;;13.50;99.90;;;;;;5116750;28;20209;-81
2021/07/30 00:20:55;;;;;;;9.68;4.03;;;13.50;99.90;;;;;;5132956;28;20032;-81
2021/07/30 00:23:22;;;;;;;11.13;4.05;;;13.50;99.90;;;;;;5116429;28;20040;-81
2021/07/30 00:25:48;;;;;;;16.13;4.32;;;13.50;99.90;;;;;;5116401;28;20559;-80
2021/07/30 00:28:15;;;;;;;11.50;4.18;;;13.50;99.90;;;;;;5116538;28;20497;-81
2021/07/30 00:30:42;;;;;;;15.02;4.88;;;13.40;99.90;;;;;;5116204;28;20519;-81
2021/07/30 00:33:09;;;;;;;12.88;4.63;;;13.50;99.90;;;;;;5116541;28;20032;-81
2021/07/30 00:35:36;;;;;;;11.00;3.63;;;13.50;99.90;;;;;;5115842;28;20047;-81
2021/07/30 00:38:03;;;;;;;16.85;4.78;;;13.50;99.90;;;;;;5116765;28;20036;-81
2021/07/30 00:40:29;;;;;;;8.50;3.97;;;13.40;99.90;;;;;;5116583;28;20036;-81
2021/07/30 00:43:00;;;;;;;14.98;5.10;;;13.40;99.90;;;;;;5116071;28;20043;-81
2021/07/30 00:45:27;;;;;;;15.18;4.95;;;13.40;99.90;;;;;;5133145;28;20463;-80
2021/07/30 00:47:54;;;;;;;14.82;4.90;;;13.40;99.90;;;;;;5115941;28;20059;-80
2021/07/30 00:50:22;;;;;;;16.05;5.10;;;13.40;99.90;;;;;;5099560;28;20052;-81
2021/07/30 00:52:50;;;;;;;12.18;4.60;;;13.40;99.90;;;;;;5130311;28;20035;-81
2021/07/30 00:55:17;;;;;;;14.30;5.18;;;13.40;99.90;;;;;;5130375;28;20043;-81
2021/07/30 00:57:45;;;;;;;15.32;5.20;;;13.40;99.90;;;;;;5112805;28;20115;-81
2021/07/30 01:00:12;;;;;;;11.40;4.43;;;13.30;99.90;;;;;;5129665;28;20032;-82
2021/07/30 01:02:39;;;;;;;14.85;5.10;;;13.30;99.90;;;;;;5129290;28;20036;-82
2021/07/30 01:05:06;;;;;;;15.02;5.22;;;13.30;99.90;;;;;;5130166;28;20245;-82
2021/07/30 01:07:33;;;;;;;9.50;4.63;;;13.20;99.90;;;;;;5129884;28;20043;-82
2021/07/30 01:10:01;;;;;;;14.60;4.70;;;13.30;99.90;;;;;;5129309;28;20066;-81
2021/07/30 01:12:27;;;;;;;9.98;4.80;;;13.20;99.90;;;;;;5130009;28;20032;-81
2021/07/30 01:14:54;;;;;;;14.23;4.85;;;13.20;99.90;;;;;;5112125;28;20404;-81
2021/07/30 01:17:21;;;;;;;12.48;4.88;;;13.10;99.90;;;;;;5129635;28;20047;-81
2021/07/30 01:19:48;;;;;;;10.20;5.07;;;13.10;99.90;;;;;;5112369;28;20052;-81
2021/07/30 01:22:27;;;;;;;15.68;5.60;;;13.10;99.90;;;;;;5112653;28;20124;-80
2021/07/30 01:24:54;;;;;;;12.85;5.28;;;13.10;99.90;;;;;;5128862;28;20036;-81
2021/07/30 01:27:21;;;;;;;15.68;5.30;;;13.10;99.90;;;;;;5112410;28;20036;-81
2021/07/30 01:29:49;;;;;;;14.38;5.43;;;13.00;99.90;;;;;;5129111;28;20043;-81
2021/07/30 01:32:17;;;;;;;14.77;5.38;;;13.00;99.90;;;;;;5129589;28;20048;-81
2021/07/30 01:34:44;;;;;;;9.98;5.00;;;13.00;99.90;;;;;;5128670;28;20082;-81
2021/07/30 01:37:11;;;;;;;11.20;5.40;;;12.90;99.90;;;;;;5129199;28;20028;-81
2021/07/30 01:39:38;;;;;;;12.30;5.30;;;12.90;99.90;;;;;;5129095;28;20118;-81
2021/07/30 01:42:05;;;;;;;12.05;5.55;;;12.90;99.90;;;;;;5128516;28;20469;-81
2021/07/30 01:44:32;;;;;;;13.18;5.70;;;12.90;99.90;;;;;;5129448;28;20035;-81
2021/07/30 01:46:59;;;;;;;11.90;5.30;;;12.90;99.90;;;;;;5111469;28;20032;-81
2021/07/30 01:49:26;;;;;;;12.48;5.50;;;12.90;99.90;;;;;;5112208;28;20056;-82
2021/07/30 01:51:53;;;;;;;14.55;5.57;;;12.80;99.90;;;;;;5111680;28;20040;-81
2021/07/30 01:54:20;;;;;;;11.10;5.63;;;12.80;99.90;;;;;;5112081;28;20491;-81
2021/07/30 01:56:46;;;;;;;11.15;5.22;;;12.80;99.90;;;;;;5111469;28;20123;-81
2021/07/30 01:59:14;;;;;;;11.55;6.03;;;12.80;99.90;;;;;;5128796;28;20480;-81
2021/07/30 02:01:41;;;;;;;13.35;5.97;;;12.80;99.90;;;;;;5112064;28;20032;-81
2021/07/30 02:04:08;;;;;;;12.77;6.20;;;12.80;99.90;;;;;;5111182;28;20543;-82
2021/07/30 02:06:35;;;;;;;15.75;5.82;;;12.80;99.90;;;;;;5128547;28;20032;-81
2021/07/30 02:09:02;;;;;;;14.73;6.10;;;12.80;99.90;;;;;;5111221;28;20043;-81
2021/07/30 02:11:29;;;;;;;15.73;6.43;;;12.80;99.90;;;;;;5129637;28;20114;-81
2021/07/30 02:16:41;;;;;;;11.18;6.35;;;12.80;99.90;;;;;;5114208;28;20040;-81
2021/07/30 02:19:08;;;;;;;14.07;6.30;;;12.70;99.90;;;;;;5111197;28;20439;-81
2021/07/30 02:21:35;;;;;;;17.17;6.07;;;12.70;99.90;;;;;;5128337;28;20082;-81
2021/07/30 02:24:02;;;;;;;12.57;5.90;;;12.70;99.90;;;;;;5094500;28;20067;-81
2021/07/30 02:26:29;;;;;;;15.75;6.78;;;12.70;99.90;;;;;;5128138;28;20032;-81
2021/07/30 02:28:56;;;;;;;14.80;6.38;;;12.70;99.90;;;;;;5110818;28;20403;-80
2021/07/30 02:31:24;;;;;;;15.32;6.68;;;12.70;99.90;;;;;;5111126;28;20036;-81
2021/07/30 02:33:52;;;;;;;16.70;6.93;;;12.60;99.90;;;;;;5111000;28;20059;-81
2021/07/30 02:36:19;;;;;;;14.20;6.70;;;12.60;99.90;;;;;;5111149;28;20028;-80
2021/07/30 02:38:46;;;;;;;15.48;6.43;;;12.60;99.90;;;;;;5111141;28;20446;-81
2021/07/30 02:41:13;;;;;;;15.63;7.43;;;12.60;99.90;;;;;;5127526;28;20450;-81
2021/07/30 02:43:40;;;;;;;17.02;6.95;;;12.60;99.90;;;;;;5110849;28;20036;-80
2021/07/30 02:46:06;;;;;;;17.00;6.80;;;12.50;99.90;;;;;;5094017;28;20036;-81
2021/07/30 02:48:33;;;;;;;16.20;7.10;;;12.50;99.90;;;;;;5110678;28;20127;-81
2021/07/30 02:51:01;;;;;;;13.95;6.43;;;12.50;99.90;;;;;;5110572;28;20068;-80
2021/07/30 02:53:28;;;;;;;16.73;6.93;;;12.50;99.90;;;;;;5127506;28;20472;-80
2021/07/30 02:55:55;;;;;;;18.02;6.70;;;12.50;99.90;;;;;;5093682;28;20040;-81
2021/07/30 02:58:22;;;;;;;14.07;6.75;;;12.50;99.90;;;;;;5127756;28;20039;-81
2021/07/30 03:00:49;;;;;;;15.93;6.90;;;12.40;99.90;;;;;;5094118;28;20123;-80
2021/07/30 03:03:16;;;;;;;14.30;6.50;;;12.40;99.90;;;;;;5110224;28;20071;-81
2021/07/30 03:05:45;;;;;;;15.75;6.95;;;12.40;99.90;;;;;;5110569;28;20503;-80
2021/07/30 03:08:12;;;;;;;15.93;7.38;;;12.40;99.90;;;;;;5126862;28;20046;-80
2021/07/30 03:10:47;;;;;;;21.83;7.05;;;12.40;99.90;;;;;;5111644;28;20036;-80
2021/07/30 03:13:14;;;;;;;14.43;7.20;;;12.40;99.90;;;;;;5093384;28;20040;-80
2021/07/30 03:15:40;;;;;;;16.63;6.70;;;12.40;99.90;;;;;;5109766;28;20036;-80
2021/07/30 03:18:07;;;;;;;13.70;6.60;;;12.30;99.90;;;;;;5109948;28;20040;-80
2021/07/30 03:20:34;;;;;;;18.63;6.47;;;12.30;99.90;;;;;;5093643;28;20035;-81
2021/07/30 03:23:01;;;;;;;18.90;7.55;;;12.30;99.90;;;;;;5109813;28;20040;-80
2021/07/30 03:25:27;;;;;;;15.18;6.78;;;12.30;99.90;;;;;;5093484;28;20391;-81
2021/07/30 03:27:54;;;;;;;15.68;7.50;;;12.30;99.90;;;;;;5093430;28;20472;-81
2021/07/30 03:30:21;;;;;;;15.50;7.07;;;12.30;99.90;;;;;;5094070;28;20083;-81
2021/07/30 03:32:48;;;;;;;18.17;7.25;;;12.20;99.90;;;;;;5127067;28;20043;-80
2021/07/30 03:35:15;;;;;;;12.13;6.97;;;12.20;99.90;;;;;;5109621;28;20473;-80
2021/07/30 03:37:45;;;;;;;18.10;7.60;;;12.20;99.90;;;;;;5093442;28;20111;-80
2021/07/30 03:40:12;;;;;;;14.73;6.85;;;12.20;99.90;;;;;;5110310;28;20036;-80
2021/07/30 03:42:39;;;;;;;16.15;7.32;;;12.20;99.90;;;;;;5093556;28;20032;-81
2021/07/30 03:45:06;;;;;;;15.63;7.43;;;12.20;99.90;;;;;;5109353;28;20477;-80
2021/07/30 03:47:33;;;;;;;16.67;7.18;;;12.20;99.90;;;;;;5093409;28;20488;-81
2021/07/30 03:50:00;;;;;;;14.95;7.03;;;12.20;99.90;;;;;;5092919;28;20078;-80
2021/07/30 03:52:28;;;;;;;13.43;7.30;;;12.20;99.90;;;;;;5093661;28;20036;-80
2021/07/30 03:54:54;;;;;;;16.23;7.45;;;12.10;99.90;;;;;;5126766;28;20044;-81
2021/07/30 03:57:21;;;;;;;17.05;7.60;;;12.20;99.90;;;;;;5093072;28;20130;-81
2021/07/30 03:59:48;;;;;;;16.10;7.70;;;12.20;99.90;;;;;;5093658;28;20043;-80
2021/07/30 04:02:18;;;;;;;16.20;7.03;;;12.10;99.90;;;;;;5126471;28;20089;-81
2021/07/30 04:04:48;;;;;;;16.08;8.15;;;12.10;99.90;;;;;;5078262;28;20048;-81
2021/07/30 04:07:15;;;;;;;18.17;8.25;;;12.20;99.90;;;;;;5109776;28;20036;-80
2021/07/30 04:09:43;;;;;;;17.80;7.85;;;12.20;99.90;;;;;;5110279;28;20043;-81
2021/07/30 04:12:10;;;;;;;16.80;7.72;;;12.20;99.90;;;;;;5109632;28;20044;-81
2021/07/30 04:14:37;;;;;;;15.80;7.85;;;12.20;99.90;;;;;;5093207;28;20039;-81
2021/07/30 04:17:04;;;;;;;16.05;8.55;;;12.20;99.90;;;;;;5093092;28;20043;-80
2021/07/30 04:19:31;;;;;;;17.70;7.95;;;12.30;99.90;;;;;;5093213;28;20443;-81
2021/07/30 04:21:57;;;;;;;13.73;8.05;;;12.20;99.90;;;;;;5109722;28;20093;-80
2021/07/30 04:24:24;;;;;;;14.55;8.00;;;12.20;99.90;;;;;;5109454;28;20036;-81
2021/07/30 04:26:51;;;;;;;17.83;8.07;;;12.30;99.90;;;;;;5126574;28;20090;-81
2021/07/30 04:29:18;;;;;;;18.48;8.40;;;12.30;99.90;;;;;;5095892;28;20040;-80
2021/07/30 04:31:45;;;;;;;20.90;8.63;;;12.30;99.90;;;;;;5096938;28;20040;-81
2021/07/30 04:34:11;;;;;;;17.23;8.63;;;12.30;99.90;;;;;;5096595;28;20039;-80
2021/07/30 04:36:39;;;;;;;18.38;8.00;;;12.30;99.90;;;;;;5130081;28;20036;-81
2021/07/30 04:39:06;;;;;;;16.42;8.30;;;12.30;99.90;;;;;;5113004;28;20128;-81
2021/07/30 04:41:34;;;;;;;18.48;8.18;;;12.30;99.90;;;;;;5096868;28;20097;-81
2021/07/30 04:44:00;;;;;;;19.98;8.80;;;12.30;99.90;;;;;;5113476;28;20032;-81
2021/07/30 04:46:27;;;;;;;16.10;8.32;;;12.40;99.90;;;;;;5096356;28;20059;-81
2021/07/30 04:48:54;;;;;;;18.10;8.45;;;12.50;99.90;;;;;;5113133;28;20153;-81
2021/07/30 04:51:21;;;;;;;16.30;8.50;;;12.40;99.90;;;;;;5096315;28;20048;-81
2021/07/30 04:53:49;;;;;;;16.42;8.43;;;12.50;99.90;;;;;;5113258;28;20032;-81
2021/07/30 04:56:19;;;;;;;18.15;8.35;;;12.40;99.90;;;;;;5096755;28;20036;-81
2021/07/30 04:58:48;;;;;;;16.02;8.27;;;12.50;99.90;;;;;;5129807;28;20438;-81
2021/07/30 05:01:14;;;;;;;19.23;8.70;;;12.60;99.90;;;;;;5112528;28;20457;-81
2021/07/30 05:03:41;;;;;;;16.50;8.82;;;12.60;99.90;;;;;;5096373;28;20040;-81
2021/07/30 05:06:28;;;;;;;16.63;8.02;;;12.60;99.90;;;;;;5096123;28;20036;-81
2021/07/30 05:08:55;;;;;;;18.52;8.50;;;12.60;99.90;;;;;;5112784;28;20625;-81
2021/07/30 05:11:24;;;;;;;17.00;8.25;;;12.70;99.90;;;;;;5112778;28;20047;-81
2021/07/30 05:13:51;;;;;;;20.15;8.32;;;12.70;99.90;;;;;;5096267;28;20388;-81
2021/07/30 05:16:18;;;;;;;16.65;8.23;;;12.70;99.90;;;;;;5112109;28;20063;-80
2021/07/30 05:18:45;;;;;;;18.80;8.48;;;12.80;99.90;;;;;;5095938;28;20035;-81
2021/07/30 05:21:12;;;;;;;18.25;8.45;;;12.80;99.90;;;;;;5111945;28;20040;-81
2021/07/30 05:23:40;;;;;;;14.23;8.25;;;12.80;99.90;;;;;;5131863;28;20496;-80
2021/07/30 05:26:07;;;;;;;19.38;8.65;;;12.90;99.90;;;;;;5116307;28;20038;-81
2021/07/30 05:28:36;;;;;;;18.52;8.07;;;12.90;99.90;;;;;;5149379;28;20036;-81
2021/07/30 05:31:12;;;;;;;22.25;8.40;;;13.00;99.90;;;;;;5117291;28;20475;-81
2021/07/30 05:33:39;;;;;;;17.40;8.02;;;13.00;99.90;;;;;;5118599;28;20056;-81
2021/07/30 05:36:06;;;;;;;19.73;8.77;;;13.10;99.90;;;;;;5095869;28;20059;-81
2021/07/30 05:38:39;;;;;;;19.80;8.98;;;13.10;99.90;;;;;;5113046;28;20044;-81
2021/07/30 05:41:08;;;;;;;20.67;8.48;;;13.20;99.90;;;;;;5112298;28;20448;-80
2021/07/30 05:43:41;;;;;;;19.67;8.40;;;13.20;99.90;;;;;;5111790;28;20409;-81
2021/07/30 05:46:09;;;;;;;14.77;8.63;;;13.30;99.90;;;;;;5112921;28;20028;-81
2021/07/30 05:48:36;;;;;;;15.02;7.93;;;13.40;99.90;;;;;;5128305;28;20492;-81
2021/07/30 05:51:04;;;;;;;16.08;8.10;;;13.40;99.90;;;;;;5128791;28;20085;-81
2021/07/30 05:53:31;;;;;;;17.17;8.25;;;13.50;99.90;;;;;;5128315;28;20465;-81
2021/07/30 05:55:57;;;;;;;18.83;8.27;;;13.50;99.90;;;;;;5112101;28;20036;-80
2021/07/30 05:58:24;;;;;;;18.27;7.53;;;13.60;99.90;;;;;;5147010;28;20046;-80
2021/07/30 06:00:51;;;;;;;18.95;7.93;;;13.70;99.90;;;;;;5115374;28;20032;-81
2021/07/30 06:03:18;;;;;;;18.08;8.25;;;13.70;99.90;;;;;;5149087;28;20042;-81
2021/07/30 06:05:45;;;;;;;21.33;8.00;;;13.80;99.90;;;;;;5130014;28;20115;-82
2021/07/30 06:08:13;;;;;;;19.58;7.70;;;13.90;99.90;;;;;;5129030;28;20036;-81
2021/07/30 06:10:39;;;;;;;18.50;7.68;;;14.00;99.90;;;;;;5129590;28;20084;-81
2021/07/30 06:13:06;;;;;;;16.58;8.48;;;14.00;99.90;;;;;;5117130;28;20040;-81
2021/07/30 06:15:33;;;;;;;18.35;7.95;;;14.10;99.90;;;;;;5131591;28;20499;-80
2021/07/30 06:18:03;;;;;;;19.63;8.52;;;14.20;99.90;;;;;;5131827;28;20434;-81
2021/07/30 06:20:31;;;;;;;19.48;8.05;;;14.30;99.90;;;;;;5148349;28;20395;-80
2021/07/30 06:22:58;;;;;;;19.27;7.32;;;14.40;99.90;;;;;;5123308;28;20475;-80
2021/07/30 06:25:25;;;;;;;17.17;7.70;;;14.40;99.90;;;;;;5129925;28;20039;-80
2021/07/30 06:27:52;;;;;;;16.80;7.68;;;14.50;99.90;;;;;;5148599;28;20403;-80
2021/07/30 06:30:19;;;;;;;13.95;6.85;;;14.60;99.90;;;;;;5114459;28;20051;-81
2021/07/30 06:32:46;;;;;;;15.88;7.07;;;14.70;99.90;;;;;;5094582;28;20097;-80
2021/07/30 06:35:15;;;;;;;16.35;7.78;;;14.90;99.90;;;;;;5094836;28;20068;-81
2021/07/30 06:37:42;;;;;;;15.68;7.45;;;15.00;99.90;;;;;;5127371;28;20040;-80
2021/07/30 06:40:10;;;;;;;21.67;7.82;;;15.00;99.90;;;;;;5094645;28;20114;-80
2021/07/30 06:42:37;;;;;;;17.40;7.45;;;15.10;99.90;;;;;;5127710;28;20035;-81
2021/07/30 06:45:05;;;;;;;14.52;7.68;;;15.20;99.90;;;;;;5127662;28;20476;-80
2021/07/30 06:47:33;;;;;;;16.08;7.00;;;15.30;99.90;;;;;;5127402;28;20468;-81
2021/07/30 06:50:01;;;;;;;17.02;7.25;;;15.40;99.90;;;;;;5110439;28;20113;-80
2021/07/30 06:52:27;;;;;;;19.40;7.65;;;15.50;99.90;;;;;;5109979;28;20028;-81
2021/07/30 06:54:54;;;;;;;15.50;7.03;;;15.60;99.90;;;;;;5111103;28;20585;-81
2021/07/30 06:57:21;;;;;;;15.48;7.00;;;15.70;99.90;;;;;;5111275;28;20039;-82
2021/07/30 06:59:48;;;;;;;13.43;6.43;;;15.80;99.90;;;;;;5127392;28;20397;-82
2021/07/30 07:02:16;;;;;;;16.70;6.63;;;15.80;99.90;;;;;;5127891;28;20036;-82
2021/07/30 07:04:43;;;;;;;14.02;7.47;;;15.90;99.90;;;;;;5098351;28;20403;-82
2021/07/30 07:07:10;;;;;;;16.90;6.90;;;16.00;99.90;;;;;;5098696;28;20036;-82
2021/07/30 07:09:37;;;;;;;16.63;6.65;;;16.00;99.90;;;;;;5127240;28;20043;-81
2021/07/30 07:12:04;;;;;;;14.45;6.68;;;16.10;99.90;;;;;;5128943;28;20040;-81
2021/07/30 07:14:31;;;;;;;16.65;6.95;;;16.20;99.90;;;;;;5143626;28;20028;-81
2021/07/30 07:16:58;;;;;;;15.85;6.43;;;16.20;99.90;;;;;;5110945;28;20032;-81
2021/07/30 07:19:25;;;;;;;17.25;6.82;;;16.30;99.90;;;;;;5094293;28;20047;-82
2021/07/30 07:21:52;;;;;;;18.55;6.78;;;16.40;99.90;;;;;;5093676;28;20028;-81
2021/07/30 07:24:19;;;;;;;16.15;6.28;;;16.50;99.90;;;;;;5110252;28;20107;-80
2021/07/30 07:26:46;;;;;;;15.82;6.72;;;16.60;99.90;;;;;;5093424;28;20044;-81
2021/07/30 07:29:12;;;;;;;15.82;6.85;;;16.70;99.90;;;;;;5093730;28;20043;-81
2021/07/30 07:31:39;;;;;;;18.52;6.32;;;16.90;99.90;;;;;;5109629;28;20102;-81
2021/07/30 07:34:06;;;;;;;14.27;5.82;;;17.00;99.90;;;;;;5093561;28;20396;-81
2021/07/30 07:36:33;;;;;;;15.98;5.80;;;17.00;99.90;;;;;;5109614;28;20064;-82
2021/07/30 07:38:59;;;;;;;14.55;6.18;;;17.10;99.90;;;;;;5110191;28;20484;-81
2021/07/30 07:41:27;;;;;;;12.60;5.88;;;17.20;99.90;;;;;;5093799;28;20377;-82
2021/07/30 07:43:54;;;;;;;12.65;5.38;;;17.30;99.90;;;;;;5126437;28;20043;-81
2021/07/30 07:46:20;;;;;;;13.85;5.78;;;17.30;99.90;;;;;;5110407;28;20110;-81
2021/07/30 07:48:47;;;;;;;12.90;6.30;;;17.40;99.90;;;;;;5092904;28;20496;-81
2021/07/30 07:51:14;;;;;;;13.02;6.03;;;17.40;99.90;;;;;;5126563;28;20484;-81
2021/07/30 07:53:41;;;;;;;15.85;6.03;;;17.60;99.90;;;;;;5109584;28;20067;-82
2021/07/30 07:56:08;;;;;;;15.15;6.43;;;17.60;99.90;;;;;;5093623;28;20082;-81
2021/07/30 07:58:35;;;;;;;12.23;5.88;;;17.70;99.90;;;;;;5093445;28;20086;-82
2021/07/30 08:01:02;;;;;;;12.05;5.30;;;17.80;99.90;;;;;;5110037;28;20040;-81
2021/07/30 08:03:29;;;;;;;13.93;6.28;;;17.90;99.90;;;;;;5130199;28;20036;-82
2021/07/30 08:05:55;;;;;;;13.73;5.53;;;17.90;99.90;;;;;;5097154;28;20058;-82
2021/07/30 08:08:22;;;;;;;12.75;5.45;;;17.90;99.90;;;;;;5097547;28;20105;-81
2021/07/30 08:10:49;;;;;;;17.08;6.20;;;18.00;99.90;;;;;;5113575;28;20040;-81
2021/07/30 08:13:16;;;;;;;13.23;5.65;;;17.90;99.90;;;;;;5097410;28;20408;-81
2021/07/30 08:15:43;;;;;;;18.30;6.85;;;18.00;99.90;;;;;;5113447;28;20040;-82
2021/07/30 08:18:10;;;;;;;15.63;6.13;;;18.00;99.90;;;;;;5113898;28;20466;-81
2021/07/30 08:20:37;;;;;;;15.18;5.97;;;18.00;99.90;;;;;;5130316;28;20032;-82
2021/07/30 08:23:04;;;;;;;15.32;6.20;;;18.10;99.90;;;;;;5130540;28;20472;-82
2021/07/30 08:25:31;;;;;;;21.35;6.18;;;18.10;99.90;;;;;;5113531;28;20063;-81
2021/07/30 08:27:58;;;;;;;11.82;5.97;;;18.20;99.90;;;;;;5129944;28;20432;-81
2021/07/30 08:30:24;;;;;;;15.32;5.70;;;18.30;99.90;;;;;;5113754;28;20075;-81
2021/07/30 08:32:51;;;;;;;13.68;6.13;;;18.30;99.90;;;;;;5096622;28;20043;-81
2021/07/30 08:35:18;;;;;;;16.85;6.60;;;18.30;99.90;;;;;;5097043;28;20032;-81
2021/07/30 08:37:45;;;;;;;13.23;5.85;;;18.40;99.90;;;;;;5113243;28;20085;-81
2021/07/30 08:40:13;;;;;;;17.30;6.32;;;18.50;99.90;;;;;;5096734;28;20050;-81
2021/07/30 08:42:40;;;;;;;15.50;5.80;;;18.50;99.90;;;;;;5113264;28;20036;-81
2021/07/30 08:45:08;;;;;;;15.32;5.50;;;18.70;99.90;;;;;;5130350;28;20107;-81
2021/07/30 08:47:35;;;;;;;15.43;5.90;;;18.70;99.90;;;;;;5130266;28;20040;-81
2021/07/30 08:50:04;;;;;;;16.38;6.00;;;18.90;99.90;;;;;;5096314;28;20048;-81
2021/07/30 08:52:36;;;;;;;12.25;5.53;;;19.00;99.90;;;;;;5113024;28;20378;-81
2021/07/30 08:55:04;;;;;;;13.68;5.28;;;19.10;99.90;;;;;;5129380;28;20396;-81
2021/07/30 08:57:31;;;;;;;14.68;5.05;;;19.20;99.90;;;;;;5113100;28;20039;-81
2021/07/30 09:00:09;;;;;;;12.35;5.20;;;19.20;99.90;;;;;;5112624;28;20047;-81
2021/07/30 09:02:36;;;;;;;12.27;4.95;;;19.20;99.90;;;;;;5129710;28;20044;-81
2021/07/30 09:05:29;;;;;;;11.07;5.35;;;19.30;99.90;;;;;;5129309;28;20036;-81
2021/07/30 09:07:57;;;;;;;14.30;5.07;;;19.40;99.90;;;;;;5129224;28;20038;-81
2021/07/30 09:10:42;;;;;;;13.38;4.68;;;19.50;99.90;;;;;;5113127;28;20152;-81
2021/07/30 09:13:26;;;;;;;11.10;4.35;;;19.50;99.90;;;;;;5129328;28;20066;-81
2021/07/30 09:15:59;;;;;;;11.18;4.20;;;19.40;99.90;;;;;;5128939;28;20509;-81
2021/07/30 09:18:28;;;;;;;12.77;4.55;;;19.30;99.90;;;;;;5129705;28;20507;-82
2021/07/30 09:20:55;;;;;;;12.23;4.50;;;19.40;99.90;;;;;;5129206;28;20039;-80
2021/07/30 09:23:24;;;;;;;9.43;4.70;;;19.40;99.90;;;;;;5095989;28;20044;-81
2021/07/30 09:25:51;;;;;;;12.15;4.70;;;19.40;99.90;;;;;;5095784;28;20422;-81
2021/07/30 09:28:19;;;;;;;14.82;4.80;;;19.60;99.90;;;;;;5112608;28;20043;-81
2021/07/30 09:30:58;;;;;;;11.98;4.90;;;19.70;99.90;;;;;;5128932;28;20421;-81
2021/07/30 09:33:26;;;;;;;11.23;4.60;;;19.90;99.90;;;;;;5112595;28;20032;-81
2021/07/30 09:35:59;;;;;;;11.13;4.05;;;20.00;99.90;;;;;;5111891;28;20040;-81
2021/07/30 09:38:26;;;;;;;13.63;4.78;;;20.20;99.90;;;;;;5112096;28;20036;-81
2021/07/30 09:41:10;;;;;;;12.50;4.60;;;20.20;99.90;;;;;;5111738;28;20036;-81
2021/07/30 09:43:41;;;;;;;9.48;4.28;;;20.40;99.90;;;;;;5129260;28;20036;-82
2021/07/30 09:46:14;;;;;;;9.55;4.38;;;20.50;99.90;;;;;;5128483;28;20085;-80
2021/07/30 09:48:53;;;;;;;8.93;4.20;;;20.50;99.90;;;;;;5128842;28;20036;-81
2021/07/30 09:51:20;;;;;;;9.60;4.25;;;20.50;99.90;;;;;;5112109;28;20446;-82
2021/07/30 09:53:47;;;;;;;6.85;3.75;;;20.50;99.90;;;;;;5128404;28;20048;-82
2021/07/30 09:56:15;;;;;;;9.63;3.95;;;20.50;99.90;;;;;;5129855;28;20032;-81
2021/07/30 09:58:45;;;;;;;7.70;3.83;;;20.50;99.90;;;;;;5128849;28;20097;-81
2021/07/30 10:01:17;;;;;;;8.88;4.03;;;20.40;99.90;;;;;;5128879;28;20036;-81
2021/07/30 10:03:46;;;;;;;9.90;4.00;;;20.40;99.90;;;;;;5128732;28;20107;-81
2021/07/30 10:06:14;;;;;;;8.23;3.88;;;20.40;99.90;;;;;;5128048;28;20480;-81
2021/07/30 10:08:45;;;;;;;12.77;4.03;;;20.40;99.90;;;;;;5128382;28;20032;-81
2021/07/30 10:11:13;;;;;;;7.93;3.97;;;20.50;99.90;;;;;;5128165;28;20036;-81
2021/07/30 10:13:51;;;;;;;8.40;3.60;;;20.50;99.90;;;;;;5095312;28;20484;-81
2021/07/30 10:16:19;;;;;;;8.07;3.70;;;20.70;99.90;;;;;;5113069;28;20487;-81
2021/07/30 10:18:49;;;;;;;9.05;3.65;;;20.80;99.90;;;;;;5111499;28;20110;-79
2021/07/30 10:21:20;;;;;;;8.27;3.95;;;20.90;99.90;;;;;;5111337;28;20040;-82
2021/07/30 10:23:51;;;;;;;8.30;3.90;;;20.90;99.90;;;;;;5128015;28;20047;-81
2021/07/30 10:26:24;;;;;;;8.35;3.60;;;21.10;99.90;;;;;;5112079;28;20039;-81
2021/07/30 10:28:58;;;;;;;12.00;4.13;;;21.30;99.90;;;;;;5127952;28;20047;-81
2021/07/30 10:31:48;;;;;;;8.50;3.65;;;21.50;99.90;;;;;;5127960;28;20106;-81
2021/07/30 10:34:17;;;;;;;11.05;3.50;;;21.60;99.90;;;;;;5110663;28;20116;-81
2021/07/30 10:36:44;;;;;;;9.00;3.30;;;21.70;99.90;;;;;;5128040;28;20039;-81
2021/07/30 10:39:15;;;;;;;10.13;3.95;;;21.70;99.90;;;;;;5110633;28;20036;-82
2021/07/30 10:42:14;;;;;;;7.90;3.63;;;21.70;99.90;;;;;;5127919;28;20047;-82
2021/07/30 10:45:19;;;;;;;7.93;3.60;;;21.60;99.90;;;;;;5127617;28;20040;-81
2021/07/30 10:47:45;;;;;;;8.15;3.83;;;21.50;99.90;;;;;;5128428;28;20043;-81
2021/07/30 10:50:42;;;;;;;7.50;3.60;;;21.50;99.90;;;;;;5093574;28;20048;-81
2021/07/30 10:53:37;;;;;;;7.85;3.78;;;21.60;99.90;;;;;;5127362;28;20047;-81
2021/07/30 10:56:17;;;;;;;10.43;3.83;;;21.60;99.90;;;;;;5127401;28;20089;-81
2021/07/30 10:58:43;;;;;;;10.95;3.78;;;21.60;99.90;;;;;;5127989;28;20524;-81
2021/07/30 11:01:14;;;;;;;6.78;3.42;;;21.60;99.90;;;;;;5110526;28;20162;-81
2021/07/30 11:03:50;;;;;;;9.98;3.50;;;21.70;99.90;;;;;;5127602;28;20040;-81
2021/07/30 11:06:52;;;;;;;9.18;3.75;;;21.80;99.90;;;;;;5127128;28;20032;-81
2021/07/30 11:09:24;;;;;;;9.23;3.75;;;21.90;99.90;;;;;;5126985;28;20044;-81
2021/07/30 11:11:57;;;;;;;7.18;3.75;;;22.00;99.90;;;;;;5127372;28;20042;-81
2021/07/30 11:14:36;;;;;;;10.45;3.70;;;22.30;99.90;;;;;;5127423;28;20050;-81
2021/07/30 11:17:08;;;;;;;9.27;3.20;;;22.40;99.90;;;;;;5126852;28;20036;-82
2021/07/30 11:19:36;;;;;;;8.13;3.50;;;22.60;99.90;;;;;;5127000;28;20545;-81
2021/07/30 11:22:12;;;;;;;7.82;3.75;;;22.40;99.90;;;;;;5126669;28;20040;-81
2021/07/30 11:24:38;;;;;;;8.65;3.80;;;22.30;99.90;;;;;;5127266;28;20064;-81
2021/07/30 11:27:06;;;;;;;10.20;3.65;;;22.10;99.90;;;;;;5128010;28;20513;-81
2021/07/30 11:29:33;;;;;;;6.82;3.33;;;22.10;99.90;;;;;;5110441;28;20040;-80
2021/07/30 11:32:01;;;;;;;10.98;3.83;;;22.00;99.90;;;;;;5126597;28;20036;-81
2021/07/30 11:34:32;;;;;;;8.02;3.30;;;22.00;99.90;;;;;;5126835;28;20032;-80
2021/07/30 11:37:02;;;;;;;9.45;3.58;;;22.00;99.90;;;;;;5126439;28;20472;-81
2021/07/30 11:39:34;;;;;;;8.50;3.25;;;22.00;99.90;;;;;;5126720;28;20128;-81
2021/07/30 11:42:01;;;;;;;9.90;3.42;;;22.10;99.90;;;;;;5126395;28;20067;-82
2021/07/30 11:44:29;;;;;;;9.27;4.10;;;22.40;99.90;;;;;;5126964;28;20042;-81
2021/07/30 11:46:58;;;;;;;8.85;3.05;;;22.40;99.90;;;;;;5093787;28;20044;-81
2021/07/30 11:49:36;;;;;;;9.30;3.88;;;22.30;99.90;;;;;;5126467;28;20036;-81
2021/07/30 11:52:09;;;;;;;10.52;3.40;;;22.20;99.90;;;;;;5127544;28;20040;-82
2021/07/30 11:54:37;;;;;;;9.98;3.70;;;22.40;99.90;;;;;;5110616;28;20040;-81
2021/07/30 11:57:05;;;;;;;8.18;3.53;;;22.60;99.90;;;;;;5127822;28;20036;-82
2021/07/30 11:59:46;;;;;;;7.78;3.38;;;22.80;99.90;;;;;;5094252;28;20079;-82
2021/07/30 12:02:15;;;;;;;10.02;3.83;;;22.90;99.90;;;;;;5126783;28;20382;-82
2021/07/30 12:04:50;;;;;;;6.78;3.25;;;23.10;99.90;;;;;;5127240;28;20472;-82
2021/07/30 12:07:31;;;;;;;9.52;3.33;;;23.20;99.90;;;;;;5076549;28;20148;-82
2021/07/30 12:10:00;;;;;;;7.40;3.40;;;23.30;99.90;;;;;;5126820;28;20381;-81
2021/07/30 12:12:30;;;;;;;8.20;3.17;;;23.20;99.90;;;;;;5126475;28;20115;-81
2021/07/30 12:14:59;;;;;;;7.82;3.65;;;23.10;99.90;;;;;;5110476;28;20036;-80
2021/07/30 12:17:30;;;;;;;7.90;3.33;;;22.90;99.90;;;;;;5126158;28;20032;-81
2021/07/30 12:20:01;;;;;;;10.32;3.55;;;22.80;99.90;;;;;;5127613;28;20081;-80
2021/07/30 12:22:43;;;;;;;10.82;3.25;;;22.80;99.90;;;;;;5126106;28;20036;-80
2021/07/30 12:25:17;;;;;;;7.13;3.55;;;22.60;99.90;;;;;;5126220;28;20071;-80
2021/07/30 12:27:45;;;;;;;6.60;3.10;;;22.60;99.90;;;;;;5126629;28;20067;-81
2021/07/30 12:30:26;;;;;;;10.57;3.60;;;22.50;99.90;;;;;;5126144;28;20438;-81
2021/07/30 12:32:53;;;;;;;8.52;3.65;;;22.40;99.90;;;;;;5093218;28;20036;-81
2021/07/30 12:35:36;;;;;;;7.18;3.63;;;22.30;99.90;;;;;;5126108;28;20400;-81
2021/07/30 12:38:08;;;;;;;8.45;3.75;;;22.20;99.90;;;;;;5126585;28;20141;-81
2021/07/30 12:40:38;;;;;;;9.90;3.80;;;22.20;99.90;;;;;;5126793;28;20032;-81
2021/07/30 12:43:18;;;;;;;11.00;3.85;;;22.20;99.90;;;;;;5093431;28;20036;-81
2021/07/30 12:45:49;;;;;;;8.55;3.65;;;22.30;99.90;;;;;;5127687;28;20035;-81
2021/07/30 12:48:21;;;;;;;6.15;3.00;;;22.30;99.90;;;;;;5126070;28;20511;-81
2021/07/30 12:50:51;;;;;;;7.05;2.83;;;22.30;99.90;;;;;;5129728;28;20062;-81